sensor_id;sensor_type;location;lat;lon;timestamp;P1;durP1;ratioP1;P2;durP2;ratioP2
12042;SDS011;6082;49.306;12.862;2024-01-25T00:02:21;9.27;;;1.60;;
12042;SDS011;6082;49.306;12.862;2024-01-25T00:04:46;7.33;;;1.63;;
12042;SDS011;6082;49.306;12.862;2024-01-25T00:07:12;5.53;;;1.53;;
12042;SDS011;6082;49.306;12.862;2024-01-25T00:09:38;3.77;;;1.30;;
12042;SDS011;6082;49.306;12.862;2024-01-25T00:12:04;5.30;;;1.53;;
12042;SDS011;6082;49.306;12.862;2024-01-25T00:14:30;8.33;;;1.57;;
12042;SDS011;6082;49.306;12.862;2024-01-25T00:16:56;6.57;;;1.60;;
12042;SDS011;6082;49.306;12.862;2024-01-25T00:19:21;4.50;;;1.50;;
12042;SDS011;6082;49.306;12.862;2024-01-25T00:21:47;10.20;;;2.33;;
12042;SDS011;6082;49.306;12.862;2024-01-25T00:24:13;7.30;;;1.87;;
12042;SDS011;6082;49.306;12.862;2024-01-25T00:26:39;4.70;;;1.83;;
12042;SDS011;6082;49.306;12.862;2024-01-25T00:29:05;6.13;;;1.53;;
12042;SDS011;6082;49.306;12.862;2024-01-25T00:31:31;9.00;;;2.03;;
12042;SDS011;6082;49.306;12.862;2024-01-25T00:33:57;2.63;;;1.40;;
12042;SDS011;6082;49.306;12.862;2024-01-25T00:36:23;3.87;;;1.53;;
12042;SDS011;6082;49.306;12.862;2024-01-25T00:38:49;8.13;;;2.50;;
12042;SDS011;6082;49.306;12.862;2024-01-25T00:41:17;4.30;;;1.37;;
12042;SDS011;6082;49.306;12.862;2024-01-25T00:43:44;7.47;;;1.17;;
12042;SDS011;6082;49.306;12.862;2024-01-25T00:46:10;4.40;;;1.67;;
12042;SDS011;6082;49.306;12.862;2024-01-25T00:48:37;8.03;;;1.87;;
12042;SDS011;6082;49.306;12.862;2024-01-25T00:51:06;4.90;;;1.47;;
12042;SDS011;6082;49.306;12.862;2024-01-25T00:53:33;4.67;;;1.43;;
12042;SDS011;6082;49.306;12.862;2024-01-25T00:55:59;8.17;;;1.60;;
12042;SDS011;6082;49.306;12.862;2024-01-25T00:58:25;9.33;;;1.40;;
12042;SDS011;6082;49.306;12.862;2024-01-25T01:00:51;9.33;;;1.40;;
12042;SDS011;6082;49.306;12.862;2024-01-25T01:03:20;3.60;;;1.60;;
12042;SDS011;6082;49.306;12.862;2024-01-25T01:05:46;6.87;;;1.30;;
12042;SDS011;6082;49.306;12.862;2024-01-25T01:08:15;8.83;;;1.67;;
12042;SDS011;6082;49.306;12.862;2024-01-25T01:10:41;4.33;;;1.40;;
12042;SDS011;6082;49.306;12.862;2024-01-25T01:13:07;5.90;;;1.47;;
12042;SDS011;6082;49.306;12.862;2024-01-25T01:15:33;5.00;;;1.53;;
12042;SDS011;6082;49.306;12.862;2024-01-25T01:17:59;6.73;;;1.40;;
12042;SDS011;6082;49.306;12.862;2024-01-25T01:20:24;10.00;;;1.73;;
12042;SDS011;6082;49.306;12.862;2024-01-25T01:22:51;9.80;;;1.57;;
12042;SDS011;6082;49.306;12.862;2024-01-25T01:25:17;8.73;;;1.70;;
12042;SDS011;6082;49.306;12.862;2024-01-25T01:27:43;6.80;;;1.53;;
12042;SDS011;6082;49.306;12.862;2024-01-25T01:30:10;6.97;;;1.90;;
12042;SDS011;6082;49.306;12.862;2024-01-25T01:32:36;9.97;;;1.83;;
12042;SDS011;6082;49.306;12.862;2024-01-25T01:35:02;6.27;;;1.50;;
12042;SDS011;6082;49.306;12.862;2024-01-25T01:37:28;9.20;;;2.57;;
12042;SDS011;6082;49.306;12.862;2024-01-25T01:39:54;8.83;;;1.97;;
12042;SDS011;6082;49.306;12.862;2024-01-25T01:42:21;4.70;;;1.50;;
12042;SDS011;6082;49.306;12.862;2024-01-25T01:44:48;5.60;;;1.60;;
12042;SDS011;6082;49.306;12.862;2024-01-25T01:47:15;9.03;;;2.00;;
12042;SDS011;6082;49.306;12.862;2024-01-25T01:49:41;5.97;;;1.40;;
12042;SDS011;6082;49.306;12.862;2024-01-25T01:52:07;9.83;;;1.57;;
12042;SDS011;6082;49.306;12.862;2024-01-25T01:54:34;4.90;;;1.53;;
12042;SDS011;6082;49.306;12.862;2024-01-25T01:57:00;3.93;;;1.27;;
12042;SDS011;6082;49.306;12.862;2024-01-25T01:59:27;6.60;;;1.80;;
12042;SDS011;6082;49.306;12.862;2024-01-25T02:01:54;6.37;;;1.43;;
12042;SDS011;6082;49.306;12.862;2024-01-25T02:04:20;6.80;;;1.40;;
12042;SDS011;6082;49.306;12.862;2024-01-25T02:06:45;3.73;;;1.37;;
12042;SDS011;6082;49.306;12.862;2024-01-25T02:09:12;7.60;;;1.63;;
12042;SDS011;6082;49.306;12.862;2024-01-25T02:11:38;5.63;;;1.47;;
12042;SDS011;6082;49.306;12.862;2024-01-25T02:14:04;9.70;;;1.90;;
12042;SDS011;6082;49.306;12.862;2024-01-25T02:16:31;8.73;;;1.73;;
12042;SDS011;6082;49.306;12.862;2024-01-25T02:18:57;6.27;;;1.40;;
12042;SDS011;6082;49.306;12.862;2024-01-25T02:21:23;9.80;;;1.90;;
12042;SDS011;6082;49.306;12.862;2024-01-25T02:23:49;3.33;;;1.40;;
12042;SDS011;6082;49.306;12.862;2024-01-25T02:26:15;6.20;;;1.43;;
12042;SDS011;6082;49.306;12.862;2024-01-25T02:28:41;8.07;;;1.50;;
12042;SDS011;6082;49.306;12.862;2024-01-25T02:31:07;8.87;;;1.70;;
12042;SDS011;6082;49.306;12.862;2024-01-25T02:33:36;9.43;;;2.00;;
12042;SDS011;6082;49.306;12.862;2024-01-25T02:36:02;7.80;;;1.70;;
12042;SDS011;6082;49.306;12.862;2024-01-25T02:38:27;4.83;;;1.67;;
12042;SDS011;6082;49.306;12.862;2024-01-25T02:40:53;9.30;;;1.93;;
12042;SDS011;6082;49.306;12.862;2024-01-25T02:43:19;5.93;;;1.27;;
12042;SDS011;6082;49.306;12.862;2024-01-25T02:45:45;7.47;;;1.97;;
12042;SDS011;6082;49.306;12.862;2024-01-25T02:48:11;7.70;;;2.00;;
12042;SDS011;6082;49.306;12.862;2024-01-25T02:50:37;7.53;;;1.80;;
12042;SDS011;6082;49.306;12.862;2024-01-25T02:53:02;10.00;;;1.90;;
12042;SDS011;6082;49.306;12.862;2024-01-25T02:55:28;6.50;;;1.83;;
12042;SDS011;6082;49.306;12.862;2024-01-25T02:57:54;8.07;;;1.73;;
12042;SDS011;6082;49.306;12.862;2024-01-25T03:00:20;7.27;;;1.37;;
12042;SDS011;6082;49.306;12.862;2024-01-25T03:02:46;8.37;;;1.80;;
12042;SDS011;6082;49.306;12.862;2024-01-25T03:05:11;7.07;;;1.90;;
12042;SDS011;6082;49.306;12.862;2024-01-25T03:07:38;10.13;;;1.50;;
12042;SDS011;6082;49.306;12.862;2024-01-25T03:10:03;8.33;;;2.03;;
12042;SDS011;6082;49.306;12.862;2024-01-25T03:12:30;7.33;;;1.70;;
12042;SDS011;6082;49.306;12.862;2024-01-25T03:14:55;7.47;;;2.03;;
12042;SDS011;6082;49.306;12.862;2024-01-25T03:17:21;5.30;;;2.00;;
12042;SDS011;6082;49.306;12.862;2024-01-25T03:19:47;6.70;;;1.67;;
12042;SDS011;6082;49.306;12.862;2024-01-25T03:22:13;9.43;;;1.67;;
12042;SDS011;6082;49.306;12.862;2024-01-25T03:24:39;8.03;;;1.53;;
12042;SDS011;6082;49.306;12.862;2024-01-25T03:27:04;7.60;;;1.70;;
12042;SDS011;6082;49.306;12.862;2024-01-25T03:29:30;6.17;;;1.67;;
12042;SDS011;6082;49.306;12.862;2024-01-25T03:31:56;6.30;;;1.97;;
12042;SDS011;6082;49.306;12.862;2024-01-25T03:34:22;8.27;;;1.63;;
12042;SDS011;6082;49.306;12.862;2024-01-25T03:36:48;6.60;;;1.80;;
12042;SDS011;6082;49.306;12.862;2024-01-25T03:39:15;8.63;;;1.43;;
12042;SDS011;6082;49.306;12.862;2024-01-25T03:41:42;5.83;;;1.70;;
12042;SDS011;6082;49.306;12.862;2024-01-25T03:44:08;6.07;;;1.40;;
12042;SDS011;6082;49.306;12.862;2024-01-25T03:46:33;3.93;;;1.43;;
12042;SDS011;6082;49.306;12.862;2024-01-25T03:48:59;6.83;;;1.83;;
12042;SDS011;6082;49.306;12.862;2024-01-25T03:51:25;7.80;;;1.70;;
12042;SDS011;6082;49.306;12.862;2024-01-25T03:53:51;4.13;;;1.40;;
12042;SDS011;6082;49.306;12.862;2024-01-25T03:56:17;7.83;;;1.77;;
12042;SDS011;6082;49.306;12.862;2024-01-25T03:58:44;12.90;;;1.70;;
12042;SDS011;6082;49.306;12.862;2024-01-25T04:01:11;4.37;;;1.70;;
12042;SDS011;6082;49.306;12.862;2024-01-25T04:03:37;5.53;;;1.63;;
12042;SDS011;6082;49.306;12.862;2024-01-25T04:06:03;7.30;;;1.47;;
12042;SDS011;6082;49.306;12.862;2024-01-25T04:08:29;9.43;;;1.90;;
12042;SDS011;6082;49.306;12.862;2024-01-25T04:10:54;4.27;;;1.50;;
12042;SDS011;6082;49.306;12.862;2024-01-25T04:13:20;5.03;;;1.30;;
12042;SDS011;6082;49.306;12.862;2024-01-25T04:15:46;10.87;;;1.73;;
12042;SDS011;6082;49.306;12.862;2024-01-25T04:18:12;10.17;;;2.03;;
12042;SDS011;6082;49.306;12.862;2024-01-25T04:20:37;2.70;;;1.30;;
12042;SDS011;6082;49.306;12.862;2024-01-25T04:23:03;7.30;;;2.50;;
12042;SDS011;6082;49.306;12.862;2024-01-25T04:25:29;5.07;;;1.73;;
12042;SDS011;6082;49.306;12.862;2024-01-25T04:27:55;7.10;;;2.10;;
12042;SDS011;6082;49.306;12.862;2024-01-25T04:30:20;8.10;;;2.17;;
12042;SDS011;6082;49.306;12.862;2024-01-25T04:32:46;5.47;;;1.93;;
12042;SDS011;6082;49.306;12.862;2024-01-25T04:35:12;9.30;;;2.23;;
12042;SDS011;6082;49.306;12.862;2024-01-25T04:37:38;7.50;;;2.00;;
12042;SDS011;6082;49.306;12.862;2024-01-25T04:40:04;5.33;;;1.37;;
12042;SDS011;6082;49.306;12.862;2024-01-25T04:42:31;7.43;;;2.00;;
12042;SDS011;6082;49.306;12.862;2024-01-25T04:44:56;4.13;;;1.50;;
12042;SDS011;6082;49.306;12.862;2024-01-25T04:47:22;7.53;;;1.80;;
12042;SDS011;6082;49.306;12.862;2024-01-25T04:49:48;7.97;;;2.50;;
12042;SDS011;6082;49.306;12.862;2024-01-25T04:52:14;3.67;;;1.40;;
12042;SDS011;6082;49.306;12.862;2024-01-25T04:54:39;4.30;;;1.63;;
12042;SDS011;6082;49.306;12.862;2024-01-25T04:57:05;6.93;;;2.03;;
12042;SDS011;6082;49.306;12.862;2024-01-25T04:59:35;10.67;;;2.10;;
12042;SDS011;6082;49.306;12.862;2024-01-25T05:02:01;5.90;;;1.67;;
12042;SDS011;6082;49.306;12.862;2024-01-25T05:04:28;9.30;;;1.93;;
12042;SDS011;6082;49.306;12.862;2024-01-25T05:06:55;9.50;;;1.90;;
12042;SDS011;6082;49.306;12.862;2024-01-25T05:09:21;11.93;;;1.90;;
12042;SDS011;6082;49.306;12.862;2024-01-25T05:11:47;6.90;;;2.07;;
12042;SDS011;6082;49.306;12.862;2024-01-25T05:14:13;7.97;;;2.00;;
12042;SDS011;6082;49.306;12.862;2024-01-25T05:16:38;5.97;;;2.03;;
12042;SDS011;6082;49.306;12.862;2024-01-25T05:19:04;9.93;;;1.87;;
12042;SDS011;6082;49.306;12.862;2024-01-25T05:21:30;5.30;;;1.93;;
12042;SDS011;6082;49.306;12.862;2024-01-25T05:23:56;11.87;;;2.57;;
12042;SDS011;6082;49.306;12.862;2024-01-25T05:26:22;3.10;;;1.30;;
12042;SDS011;6082;49.306;12.862;2024-01-25T05:28:48;7.80;;;2.50;;
12042;SDS011;6082;49.306;12.862;2024-01-25T05:31:14;11.80;;;2.20;;
12042;SDS011;6082;49.306;12.862;2024-01-25T05:33:41;6.90;;;1.60;;
12042;SDS011;6082;49.306;12.862;2024-01-25T05:36:08;12.90;;;2.70;;
12042;SDS011;6082;49.306;12.862;2024-01-25T05:38:34;6.67;;;1.73;;
12042;SDS011;6082;49.306;12.862;2024-01-25T05:41:00;6.63;;;1.90;;
12042;SDS011;6082;49.306;12.862;2024-01-25T05:43:26;7.23;;;1.90;;
12042;SDS011;6082;49.306;12.862;2024-01-25T05:45:52;4.97;;;1.80;;
12042;SDS011;6082;49.306;12.862;2024-01-25T05:48:17;7.27;;;1.97;;
12042;SDS011;6082;49.306;12.862;2024-01-25T05:50:43;14.23;;;1.43;;
12042;SDS011;6082;49.306;12.862;2024-01-25T05:53:09;8.33;;;2.03;;
12042;SDS011;6082;49.306;12.862;2024-01-25T05:55:35;6.00;;;1.87;;
12042;SDS011;6082;49.306;12.862;2024-01-25T05:58:00;7.00;;;2.03;;
12042;SDS011;6082;49.306;12.862;2024-01-25T06:00:27;6.37;;;2.00;;
12042;SDS011;6082;49.306;12.862;2024-01-25T06:02:53;8.83;;;2.13;;
12042;SDS011;6082;49.306;12.862;2024-01-25T06:05:19;6.43;;;1.80;;
12042;SDS011;6082;49.306;12.862;2024-01-25T06:07:45;10.40;;;2.13;;
12042;SDS011;6082;49.306;12.862;2024-01-25T06:10:14;7.60;;;1.77;;
12042;SDS011;6082;49.306;12.862;2024-01-25T06:12:40;5.17;;;1.63;;
12042;SDS011;6082;49.306;12.862;2024-01-25T06:15:06;6.40;;;2.27;;
12042;SDS011;6082;49.306;12.862;2024-01-25T06:17:32;5.90;;;2.47;;
12042;SDS011;6082;49.306;12.862;2024-01-25T06:19:58;4.67;;;2.37;;
12042;SDS011;6082;49.306;12.862;2024-01-25T06:22:23;3.60;;;1.83;;
12042;SDS011;6082;49.306;12.862;2024-01-25T06:24:50;4.63;;;2.10;;
12042;SDS011;6082;49.306;12.862;2024-01-25T06:27:16;4.97;;;1.83;;
12042;SDS011;6082;49.306;12.862;2024-01-25T06:29:41;5.80;;;2.20;;
12042;SDS011;6082;49.306;12.862;2024-01-25T06:32:07;7.67;;;1.87;;
12042;SDS011;6082;49.306;12.862;2024-01-25T06:34:33;4.77;;;1.67;;
12042;SDS011;6082;49.306;12.862;2024-01-25T06:36:58;8.03;;;2.30;;
12042;SDS011;6082;49.306;12.862;2024-01-25T06:39:24;11.83;;;1.93;;
12042;SDS011;6082;49.306;12.862;2024-01-25T06:41:50;5.83;;;2.03;;
12042;SDS011;6082;49.306;12.862;2024-01-25T06:44:16;5.60;;;1.97;;
12042;SDS011;6082;49.306;12.862;2024-01-25T06:46:42;5.17;;;2.03;;
12042;SDS011;6082;49.306;12.862;2024-01-25T06:49:08;9.20;;;2.43;;
12042;SDS011;6082;49.306;12.862;2024-01-25T06:51:33;4.20;;;1.80;;
12042;SDS011;6082;49.306;12.862;2024-01-25T06:53:59;4.17;;;1.63;;
12042;SDS011;6082;49.306;12.862;2024-01-25T06:56:25;7.97;;;2.10;;
12042;SDS011;6082;49.306;12.862;2024-01-25T06:58:51;11.63;;;2.03;;
12042;SDS011;6082;49.306;12.862;2024-01-25T07:01:23;7.70;;;2.10;;
12042;SDS011;6082;49.306;12.862;2024-01-25T07:03:49;8.87;;;2.20;;
12042;SDS011;6082;49.306;12.862;2024-01-25T07:06:18;6.40;;;2.30;;
12042;SDS011;6082;49.306;12.862;2024-01-25T07:08:44;9.13;;;2.80;;
12042;SDS011;6082;49.306;12.862;2024-01-25T07:11:11;12.13;;;2.43;;
12042;SDS011;6082;49.306;12.862;2024-01-25T07:13:36;7.50;;;2.20;;
12042;SDS011;6082;49.306;12.862;2024-01-25T07:16:02;7.33;;;2.33;;
12042;SDS011;6082;49.306;12.862;2024-01-25T07:18:28;9.53;;;2.37;;
12042;SDS011;6082;49.306;12.862;2024-01-25T07:20:54;6.87;;;2.27;;
12042;SDS011;6082;49.306;12.862;2024-01-25T07:23:21;7.17;;;2.33;;
12042;SDS011;6082;49.306;12.862;2024-01-25T07:25:47;6.20;;;2.13;;
12042;SDS011;6082;49.306;12.862;2024-01-25T07:28:13;6.23;;;2.00;;
12042;SDS011;6082;49.306;12.862;2024-01-25T07:30:39;5.23;;;1.97;;
12042;SDS011;6082;49.306;12.862;2024-01-25T07:33:04;7.53;;;2.13;;
12042;SDS011;6082;49.306;12.862;2024-01-25T07:35:30;9.87;;;2.63;;
12042;SDS011;6082;49.306;12.862;2024-01-25T07:37:56;11.50;;;2.43;;
12042;SDS011;6082;49.306;12.862;2024-01-25T07:40:22;5.37;;;2.10;;
12042;SDS011;6082;49.306;12.862;2024-01-25T07:42:48;8.20;;;2.20;;
12042;SDS011;6082;49.306;12.862;2024-01-25T07:45:14;5.30;;;2.13;;
12042;SDS011;6082;49.306;12.862;2024-01-25T07:47:43;7.13;;;2.03;;
12042;SDS011;6082;49.306;12.862;2024-01-25T07:50:09;7.97;;;2.13;;
12042;SDS011;6082;49.306;12.862;2024-01-25T07:52:35;11.23;;;2.83;;
12042;SDS011;6082;49.306;12.862;2024-01-25T07:55:01;14.93;;;1.90;;
12042;SDS011;6082;49.306;12.862;2024-01-25T07:57:27;7.80;;;2.40;;
12042;SDS011;6082;49.306;12.862;2024-01-25T07:59:52;8.30;;;2.10;;
12042;SDS011;6082;49.306;12.862;2024-01-25T08:02:18;8.57;;;2.20;;
12042;SDS011;6082;49.306;12.862;2024-01-25T08:04:44;9.17;;;2.43;;
12042;SDS011;6082;49.306;12.862;2024-01-25T08:07:10;8.20;;;2.37;;
12042;SDS011;6082;49.306;12.862;2024-01-25T08:09:36;6.30;;;2.80;;
12042;SDS011;6082;49.306;12.862;2024-01-25T08:12:02;8.47;;;2.40;;
12042;SDS011;6082;49.306;12.862;2024-01-25T08:14:28;6.37;;;2.23;;
12042;SDS011;6082;49.306;12.862;2024-01-25T08:16:54;10.63;;;2.30;;
12042;SDS011;6082;49.306;12.862;2024-01-25T08:19:20;6.67;;;2.20;;
12042;SDS011;6082;49.306;12.862;2024-01-25T08:21:46;6.00;;;2.20;;
12042;SDS011;6082;49.306;12.862;2024-01-25T08:24:12;7.87;;;2.33;;
12042;SDS011;6082;49.306;12.862;2024-01-25T08:26:38;8.07;;;2.77;;
12042;SDS011;6082;49.306;12.862;2024-01-25T08:29:04;7.23;;;2.13;;
12042;SDS011;6082;49.306;12.862;2024-01-25T08:31:29;7.30;;;2.37;;
12042;SDS011;6082;49.306;12.862;2024-01-25T08:33:55;6.90;;;2.33;;
12042;SDS011;6082;49.306;12.862;2024-01-25T08:36:21;6.87;;;2.40;;
12042;SDS011;6082;49.306;12.862;2024-01-25T08:38:47;3.43;;;2.00;;
12042;SDS011;6082;49.306;12.862;2024-01-25T08:41:13;7.90;;;3.30;;
12042;SDS011;6082;49.306;12.862;2024-01-25T08:43:40;4.10;;;2.33;;
12042;SDS011;6082;49.306;12.862;2024-01-25T08:46:07;8.43;;;2.37;;
12042;SDS011;6082;49.306;12.862;2024-01-25T08:48:33;4.97;;;1.83;;
12042;SDS011;6082;49.306;12.862;2024-01-25T08:50:59;6.40;;;2.37;;
12042;SDS011;6082;49.306;12.862;2024-01-25T08:53:25;15.90;;;2.80;;
12042;SDS011;6082;49.306;12.862;2024-01-25T08:55:54;9.90;;;2.77;;
12042;SDS011;6082;49.306;12.862;2024-01-25T08:58:20;9.00;;;2.30;;
12042;SDS011;6082;49.306;12.862;2024-01-25T09:00:46;11.30;;;2.47;;
12042;SDS011;6082;49.306;12.862;2024-01-25T09:03:12;8.17;;;2.40;;
12042;SDS011;6082;49.306;12.862;2024-01-25T09:05:38;10.90;;;2.50;;
12042;SDS011;6082;49.306;12.862;2024-01-25T09:08:11;4.60;;;2.00;;
12042;SDS011;6082;49.306;12.862;2024-01-25T09:10:37;14.47;;;2.33;;
12042;SDS011;6082;49.306;12.862;2024-01-25T09:13:04;8.40;;;2.00;;
12042;SDS011;6082;49.306;12.862;2024-01-25T09:15:29;13.20;;;2.27;;
12042;SDS011;6082;49.306;12.862;2024-01-25T09:17:55;6.43;;;2.43;;
12042;SDS011;6082;49.306;12.862;2024-01-25T09:20:21;5.30;;;2.37;;
12042;SDS011;6082;49.306;12.862;2024-01-25T09:22:46;7.23;;;2.30;;
12042;SDS011;6082;49.306;12.862;2024-01-25T09:25:12;8.87;;;2.13;;
12042;SDS011;6082;49.306;12.862;2024-01-25T09:27:38;5.20;;;2.17;;
12042;SDS011;6082;49.306;12.862;2024-01-25T09:30:05;8.70;;;2.17;;
12042;SDS011;6082;49.306;12.862;2024-01-25T09:32:31;7.73;;;2.47;;
12042;SDS011;6082;49.306;12.862;2024-01-25T09:34:57;4.60;;;2.47;;
12042;SDS011;6082;49.306;12.862;2024-01-25T09:37:22;10.07;;;3.93;;
12042;SDS011;6082;49.306;12.862;2024-01-25T09:39:49;14.23;;;5.73;;
12042;SDS011;6082;49.306;12.862;2024-01-25T09:42:16;10.80;;;2.90;;
12042;SDS011;6082;49.306;12.862;2024-01-25T09:44:43;12.13;;;3.03;;
12042;SDS011;6082;49.306;12.862;2024-01-25T09:47:09;8.17;;;3.30;;
12042;SDS011;6082;49.306;12.862;2024-01-25T09:49:36;9.67;;;3.57;;
12042;SDS011;6082;49.306;12.862;2024-01-25T09:52:03;11.50;;;3.83;;
12042;SDS011;6082;49.306;12.862;2024-01-25T09:54:34;11.30;;;4.20;;
12042;SDS011;6082;49.306;12.862;2024-01-25T09:57:03;13.47;;;3.90;;
12042;SDS011;6082;49.306;12.862;2024-01-25T09:59:33;12.07;;;5.40;;
12042;SDS011;6082;49.306;12.862;2024-01-25T10:02:01;14.93;;;6.53;;
12042;SDS011;6082;49.306;12.862;2024-01-25T10:04:28;12.23;;;5.97;;
12042;SDS011;6082;49.306;12.862;2024-01-25T10:06:55;14.50;;;5.03;;
12042;SDS011;6082;49.306;12.862;2024-01-25T10:09:21;10.23;;;3.80;;
12042;SDS011;6082;49.306;12.862;2024-01-25T10:11:51;15.33;;;4.83;;
12042;SDS011;6082;49.306;12.862;2024-01-25T10:14:16;12.77;;;4.23;;
12042;SDS011;6082;49.306;12.862;2024-01-25T10:16:44;9.83;;;4.67;;
12042;SDS011;6082;49.306;12.862;2024-01-25T10:19:10;9.13;;;3.10;;
12042;SDS011;6082;49.306;12.862;2024-01-25T10:21:37;10.00;;;4.30;;
12042;SDS011;6082;49.306;12.862;2024-01-25T10:24:06;5.03;;;2.40;;
12042;SDS011;6082;49.306;12.862;2024-01-25T10:26:31;9.47;;;2.93;;
12042;SDS011;6082;49.306;12.862;2024-01-25T10:29:00;5.87;;;3.17;;
12042;SDS011;6082;49.306;12.862;2024-01-25T10:31:26;5.60;;;2.43;;
12042;SDS011;6082;49.306;12.862;2024-01-25T10:33:54;12.87;;;3.93;;
12042;SDS011;6082;49.306;12.862;2024-01-25T10:36:21;7.97;;;2.83;;
12042;SDS011;6082;49.306;12.862;2024-01-25T10:38:48;14.27;;;3.50;;
12042;SDS011;6082;49.306;12.862;2024-01-25T10:41:15;5.87;;;2.27;;
12042;SDS011;6082;49.306;12.862;2024-01-25T10:43:42;3.87;;;2.40;;
12042;SDS011;6082;49.306;12.862;2024-01-25T10:46:08;8.57;;;2.30;;
12042;SDS011;6082;49.306;12.862;2024-01-25T10:48:34;8.77;;;1.90;;
12042;SDS011;6082;49.306;12.862;2024-01-25T10:51:00;10.33;;;2.97;;
12042;SDS011;6082;49.306;12.862;2024-01-25T10:53:31;8.80;;;2.53;;
12042;SDS011;6082;49.306;12.862;2024-01-25T10:55:59;7.57;;;2.10;;
12042;SDS011;6082;49.306;12.862;2024-01-25T10:58:30;7.77;;;2.40;;
12042;SDS011;6082;49.306;12.862;2024-01-25T11:00:57;8.20;;;2.53;;
12042;SDS011;6082;49.306;12.862;2024-01-25T11:03:26;6.57;;;2.23;;
12042;SDS011;6082;49.306;12.862;2024-01-25T11:06:05;8.90;;;2.40;;
12042;SDS011;6082;49.306;12.862;2024-01-25T11:08:36;8.97;;;2.77;;
12042;SDS011;6082;49.306;12.862;2024-01-25T11:11:08;6.53;;;2.13;;
12042;SDS011;6082;49.306;12.862;2024-01-25T11:13:39;4.43;;;2.13;;
12042;SDS011;6082;49.306;12.862;2024-01-25T11:16:12;5.80;;;2.40;;
12042;SDS011;6082;49.306;12.862;2024-01-25T11:18:52;6.97;;;2.10;;
12042;SDS011;6082;49.306;12.862;2024-01-25T11:21:29;7.80;;;2.37;;
12042;SDS011;6082;49.306;12.862;2024-01-25T11:24:13;8.30;;;2.80;;
12042;SDS011;6082;49.306;12.862;2024-01-25T11:26:42;6.00;;;2.23;;
12042;SDS011;6082;49.306;12.862;2024-01-25T11:29:09;5.37;;;2.23;;
12042;SDS011;6082;49.306;12.862;2024-01-25T11:31:35;7.40;;;2.40;;
12042;SDS011;6082;49.306;12.862;2024-01-25T11:34:01;8.67;;;2.10;;
12042;SDS011;6082;49.306;12.862;2024-01-25T11:36:27;6.70;;;2.47;;
12042;SDS011;6082;49.306;12.862;2024-01-25T11:38:53;7.07;;;2.03;;
12042;SDS011;6082;49.306;12.862;2024-01-25T11:41:19;8.23;;;2.30;;
12042;SDS011;6082;49.306;12.862;2024-01-25T11:43:48;9.47;;;2.50;;
12042;SDS011;6082;49.306;12.862;2024-01-25T11:46:14;8.60;;;2.50;;
12042;SDS011;6082;49.306;12.862;2024-01-25T11:48:40;6.10;;;2.10;;
12042;SDS011;6082;49.306;12.862;2024-01-25T11:51:06;6.57;;;2.17;;
12042;SDS011;6082;49.306;12.862;2024-01-25T11:53:35;4.10;;;2.57;;
12042;SDS011;6082;49.306;12.862;2024-01-25T11:56:01;6.27;;;2.50;;
12042;SDS011;6082;49.306;12.862;2024-01-25T11:58:29;13.20;;;4.30;;
12042;SDS011;6082;49.306;12.862;2024-01-25T12:00:55;9.23;;;4.27;;
12042;SDS011;6082;49.306;12.862;2024-01-25T12:03:21;10.30;;;3.87;;
12042;SDS011;6082;49.306;12.862;2024-01-25T12:05:47;21.43;;;6.60;;
12042;SDS011;6082;49.306;12.862;2024-01-25T12:08:13;13.00;;;4.20;;
12042;SDS011;6082;49.306;12.862;2024-01-25T12:10:39;13.00;;;4.63;;
12042;SDS011;6082;49.306;12.862;2024-01-25T12:13:08;5.33;;;2.70;;
12042;SDS011;6082;49.306;12.862;2024-01-25T12:15:34;9.90;;;2.63;;
12042;SDS011;6082;49.306;12.862;2024-01-25T12:18:04;6.90;;;2.80;;
12042;SDS011;6082;49.306;12.862;2024-01-25T12:20:32;10.77;;;3.03;;
12042;SDS011;6082;49.306;12.862;2024-01-25T12:23:00;9.47;;;2.50;;
12042;SDS011;6082;49.306;12.862;2024-01-25T12:25:26;6.47;;;2.23;;
12042;SDS011;6082;49.306;12.862;2024-01-25T12:27:55;6.87;;;2.30;;
12042;SDS011;6082;49.306;12.862;2024-01-25T12:30:21;5.20;;;1.97;;
12042;SDS011;6082;49.306;12.862;2024-01-25T12:32:48;6.67;;;2.30;;
12042;SDS011;6082;49.306;12.862;2024-01-25T12:35:14;12.53;;;3.63;;
12042;SDS011;6082;49.306;12.862;2024-01-25T12:37:40;7.27;;;3.00;;
12042;SDS011;6082;49.306;12.862;2024-01-25T12:40:06;5.30;;;2.30;;
12042;SDS011;6082;49.306;12.862;2024-01-25T12:42:33;7.33;;;2.83;;
12042;SDS011;6082;49.306;12.862;2024-01-25T12:44:58;7.43;;;2.57;;
12042;SDS011;6082;49.306;12.862;2024-01-25T12:47:24;6.57;;;3.00;;
12042;SDS011;6082;49.306;12.862;2024-01-25T12:49:50;13.73;;;4.50;;
12042;SDS011;6082;49.306;12.862;2024-01-25T12:52:16;7.90;;;2.50;;
12042;SDS011;6082;49.306;12.862;2024-01-25T12:54:42;6.33;;;2.80;;
12042;SDS011;6082;49.306;12.862;2024-01-25T12:57:08;7.97;;;2.00;;
12042;SDS011;6082;49.306;12.862;2024-01-25T12:59:34;6.50;;;2.77;;
12042;SDS011;6082;49.306;12.862;2024-01-25T13:02:01;5.70;;;2.30;;
12042;SDS011;6082;49.306;12.862;2024-01-25T13:04:27;9.00;;;2.57;;
12042;SDS011;6082;49.306;12.862;2024-01-25T13:06:53;6.23;;;2.23;;
12042;SDS011;6082;49.306;12.862;2024-01-25T13:09:22;10.40;;;3.23;;
12042;SDS011;6082;49.306;12.862;2024-01-25T13:11:48;5.00;;;2.53;;
12042;SDS011;6082;49.306;12.862;2024-01-25T13:14:14;7.03;;;2.70;;
12042;SDS011;6082;49.306;12.862;2024-01-25T13:16:41;11.90;;;3.57;;
12042;SDS011;6082;49.306;12.862;2024-01-25T13:19:07;8.40;;;2.57;;
12042;SDS011;6082;49.306;12.862;2024-01-25T13:21:33;7.73;;;2.53;;
12042;SDS011;6082;49.306;12.862;2024-01-25T13:23:59;7.93;;;2.37;;
12042;SDS011;6082;49.306;12.862;2024-01-25T13:26:26;9.13;;;2.57;;
12042;SDS011;6082;49.306;12.862;2024-01-25T13:28:52;7.90;;;3.17;;
12042;SDS011;6082;49.306;12.862;2024-01-25T13:31:18;9.23;;;2.97;;
12042;SDS011;6082;49.306;12.862;2024-01-25T13:33:44;6.57;;;2.30;;
12042;SDS011;6082;49.306;12.862;2024-01-25T13:36:10;7.87;;;2.53;;
12042;SDS011;6082;49.306;12.862;2024-01-25T13:38:38;8.97;;;3.20;;
12042;SDS011;6082;49.306;12.862;2024-01-25T13:41:07;6.37;;;3.10;;
12042;SDS011;6082;49.306;12.862;2024-01-25T13:43:33;7.97;;;2.77;;
12042;SDS011;6082;49.306;12.862;2024-01-25T13:45:59;4.93;;;2.60;;
12042;SDS011;6082;49.306;12.862;2024-01-25T13:48:24;6.33;;;2.60;;
12042;SDS011;6082;49.306;12.862;2024-01-25T13:50:50;4.60;;;2.40;;
12042;SDS011;6082;49.306;12.862;2024-01-25T13:53:16;7.10;;;2.87;;
12042;SDS011;6082;49.306;12.862;2024-01-25T13:55:42;7.87;;;2.90;;
12042;SDS011;6082;49.306;12.862;2024-01-25T13:58:09;5.73;;;2.30;;
12042;SDS011;6082;49.306;12.862;2024-01-25T14:00:35;11.70;;;3.53;;
12042;SDS011;6082;49.306;12.862;2024-01-25T14:03:01;7.17;;;2.80;;
12042;SDS011;6082;49.306;12.862;2024-01-25T14:05:27;7.17;;;2.70;;
12042;SDS011;6082;49.306;12.862;2024-01-25T14:07:53;5.50;;;2.67;;
12042;SDS011;6082;49.306;12.862;2024-01-25T14:10:19;10.73;;;2.20;;
12042;SDS011;6082;49.306;12.862;2024-01-25T14:12:45;7.17;;;2.30;;
12042;SDS011;6082;49.306;12.862;2024-01-25T14:15:11;4.93;;;1.90;;
12042;SDS011;6082;49.306;12.862;2024-01-25T14:17:37;4.80;;;2.93;;
12042;SDS011;6082;49.306;12.862;2024-01-25T14:20:03;3.87;;;1.80;;
12042;SDS011;6082;49.306;12.862;2024-01-25T14:22:30;4.93;;;1.77;;
12042;SDS011;6082;49.306;12.862;2024-01-25T14:24:57;10.70;;;2.23;;
12042;SDS011;6082;49.306;12.862;2024-01-25T14:27:22;5.70;;;1.87;;
12042;SDS011;6082;49.306;12.862;2024-01-25T14:29:48;4.90;;;2.27;;
12042;SDS011;6082;49.306;12.862;2024-01-25T14:32:14;6.67;;;1.70;;
12042;SDS011;6082;49.306;12.862;2024-01-25T14:34:40;5.77;;;1.70;;
12042;SDS011;6082;49.306;12.862;2024-01-25T14:37:05;4.30;;;1.50;;
12042;SDS011;6082;49.306;12.862;2024-01-25T14:39:31;4.37;;;2.10;;
12042;SDS011;6082;49.306;12.862;2024-01-25T14:41:57;4.23;;;1.83;;